Airfield :
LOGIN :

Register | Disclaimer

   EN    FR    IT 

 










Legend :    VFR   Marginal VFR   IFR   Intensive IFR   Very Intensive IFR
Visi :
Ceiling :
>= 8 km
>= 3000ft
5 to 8 km
1000 to 3000 ft
1500m to 5 km
500 to 1000 ft
800 to 1500m
200 to 500 ft
< 800m
< 200 ft
Symbols :   Thunderstorms  Fog  Heavy snow  Heavy precipitations  Wind > 20 kt
SIGMETs :     Misc.  Thunderstorms  Icing  Turbulence  Mountain Waves  Volcanic Ashes






- Airport Elevation : 21 ft
- IATA code : VST


ESOW - Stockholm Västerås

CURRENT METAR :
  • 131150Z 01005KT 3200 BR FEW006 SCT013 BKN018 OVC023 03/02 Q1003 R01/290195

EXPIRED METARs :
  • 131120Z 01004KT 5000 BR SCT016 BKN027 03/02 Q1003 R01/290195
  • 131050Z 01003KT 5000 -RA SCT027 BKN045 02/01 Q1004 R01/290195
  • 131020Z 01005KT 6000 FEW025 BKN051 02/01 Q1004 R01/290195
  • 130950Z 36004KT 6000 FEW025 BKN051 02/01 Q1004 R01/290195
  • 130920Z 36004KT 6000 FEW029 BKN055 OVC110 01/00 Q1004 R01/290195
  • 130850Z 01005KT 6000 SCT026 01/M00 Q1004 R01/290195

TAF TAF ESOW
Valid from the 13 at 12:00 until the 13 at 16:00 UTC


131130Z 1312/1316 01004KT 6000 BKN016
PROB40 1312/1314 4000 RA BKN009
PROB40 1314/1316 1200 BR BKN002



MET'MAP, your aeronautical weather chart ! - Copyright ORBIFLY December 2007 - Disclaimer

ORBIFLY MET'MAP TEAM :

Programming & Development : Alexandra Zaïnal
Concept & Development : Baudouin d'Aumeries
Co-Development & Prog : Marc-Olivier Méhu
Technical & hardware support : Manuel Goepfert

Contact : metmap@orbifly.com




SOURCES & CREDITS :

   NOAA